createdAt,value
2023-04-09T00:02:11.287Z,100848.09
2023-04-09T00:04:45.271Z,100844.84
2023-04-09T00:07:14.945Z,100844.84
2023-04-09T00:09:50.586Z,100845.12
2023-04-09T00:12:20.899Z,100850.72
2023-04-09T00:14:47.741Z,100851.53
2023-04-09T00:17:14.923Z,100850.72
2023-04-09T00:19:41.801Z,100846.16
2023-04-09T00:22:14.902Z,100846.44
2023-04-09T00:24:42.048Z,100849.12
2023-04-09T00:27:12.047Z,100848.03
2023-04-09T00:29:41.932Z,100849.12
2023-04-09T00:32:17.443Z,100847.50
2023-04-09T00:34:46.300Z,100849.63
2023-04-09T00:37:18.485Z,100849.09
2023-04-09T00:39:54.336Z,100853.38
2023-04-09T00:42:29.913Z,100853.38
2023-04-09T00:45:00.753Z,100853.38
2023-04-09T00:47:30.361Z,100854.47
2023-04-09T00:50:01.617Z,100855.50
2023-04-09T00:52:29.382Z,100848.53
2023-04-09T00:54:58.908Z,100851.50
2023-04-09T00:57:29.714Z,100849.63
2023-04-09T01:00:03.304Z,100855.25
2023-04-09T01:02:34.088Z,100854.41
2023-04-09T01:05:04.538Z,100857.37
2023-04-09T01:07:52.777Z,100856.56
2023-04-09T01:10:40.814Z,100848.75
2023-04-09T01:13:32.424Z,100845.28
2023-04-09T01:16:04.560Z,100849.31
2023-04-09T01:18:43.198Z,100842.59
2023-04-09T01:21:20.544Z,100840.47
2023-04-09T01:24:13.237Z,100840.69
2023-04-09T01:27:01.659Z,100840.69
2023-04-09T01:29:34.816Z,100842.56
2023-04-09T01:32:03.267Z,100843.66
2023-04-09T01:34:34.654Z,100842.56
2023-04-09T01:37:06.691Z,100844.47
2023-04-09T01:39:45.464Z,100842.03
2023-04-09T01:42:18.211Z,100837.72
2023-04-09T01:44:53.258Z,100842.28
2023-04-09T01:47:25.781Z,100838.81
2023-04-09T01:50:00.743Z,100848.72
2023-04-09T01:52:30.761Z,100848.97
2023-04-09T01:55:04.057Z,100846.28
2023-04-09T01:57:33.923Z,100851.09
2023-04-09T02:00:04.975Z,100848.44
2023-04-09T02:02:45.725Z,100848.44
2023-04-09T02:05:20.834Z,100852.19
2023-04-09T02:07:55.045Z,100846.81
2023-04-09T02:10:27.365Z,100855.91
2023-04-09T02:12:56.122Z,100853.50
2023-04-09T02:15:30.255Z,100848.94
2023-04-09T02:18:03.245Z,100856.97
2023-04-09T02:20:36.669Z,100858.06
2023-04-09T02:23:04.367Z,100851.09
2023-04-09T02:25:38.055Z,100843.03
2023-04-09T02:28:10.687Z,100853.75
2023-04-09T02:30:50.341Z,100854.56
2023-04-09T02:33:20.592Z,100849.44
2023-04-09T02:35:53.647Z,100846.22
2023-04-09T02:38:26.041Z,100846.22
2023-04-09T02:40:56.106Z,100847.34
2023-04-09T02:43:29.568Z,100849.72
2023-04-09T02:46:03.429Z,100844.63
2023-04-09T02:48:41.699Z,100841.94
2023-04-09T02:51:11.327Z,100836.84
2023-04-09T02:53:44.100Z,100840.31
2023-04-09T02:56:11.174Z,100839.28
2023-04-09T02:58:40.647Z,100840.31
2023-04-09T03:01:13.440Z,100830.66
2023-04-09T03:03:43.206Z,100830.66
2023-04-09T03:06:19.337Z,100829.06
2023-04-09T03:08:53.101Z,100836.84
2023-04-09T03:11:23.591Z,100834.41
2023-04-09T03:13:50.462Z,100829.06
2023-04-09T03:16:20.962Z,100824.22
2023-04-09T03:18:54.522Z,100834.94
2023-04-09T03:21:22.021Z,100825.00
2023-04-09T03:23:54.841Z,100833.06
2023-04-09T03:26:22.263Z,100827.97
2023-04-09T03:28:55.415Z,100831.72
2023-04-09T03:31:24.842Z,100835.44
2023-04-09T03:33:58.048Z,100835.19
2023-04-09T03:36:25.326Z,100833.31
2023-04-09T03:38:55.590Z,100831.72
2023-04-09T03:41:26.976Z,100840.78
2023-04-09T03:43:56.946Z,100830.63
2023-04-09T03:46:23.940Z,100837.00
2023-04-09T03:48:57.174Z,100836.78
2023-04-09T03:51:27.249Z,100836.47
2023-04-09T03:54:00.731Z,100837.25
2023-04-09T03:56:33.690Z,100836.19
2023-04-09T03:59:03.980Z,100835.66
2023-04-09T04:01:30.887Z,100846.38
2023-04-09T04:04:04.512Z,100843.94
2023-04-09T04:06:37.559Z,100843.94
2023-04-09T04:09:04.746Z,100850.63
2023-04-09T04:11:37.985Z,100846.87
2023-04-09T04:14:07.772Z,100856.78
2023-04-09T04:16:37.700Z,100852.47
2023-04-09T04:19:11.094Z,100853.31
2023-04-09T04:21:40.165Z,100860.50
2023-04-09T04:24:16.471Z,100855.16
2023-04-09T04:26:50.098Z,100850.87
2023-04-09T04:29:20.720Z,100858.66
2023-04-09T04:31:50.411Z,100858.09
2023-04-09T04:34:23.344Z,100859.97
2023-04-09T04:36:56.712Z,100854.88
2023-04-09T04:39:27.482Z,100853.81
2023-04-09T04:42:00.392Z,100855.69
2023-04-09T04:44:30.298Z,100854.88
2023-04-09T04:47:00.270Z,100860.25
2023-04-09T04:49:30.472Z,100859.41
2023-04-09T04:52:03.266Z,100858.88
2023-04-09T04:54:37.265Z,100860.25
2023-04-09T04:57:04.708Z,100852.44
2023-04-09T04:59:38.324Z,100857.81
2023-04-09T05:02:05.323Z,100859.94
2023-04-09T05:04:38.468Z,100855.38
2023-04-09T05:07:05.810Z,100864.47
2023-04-09T05:09:35.374Z,100865.31
2023-04-09T05:12:02.964Z,100863.66
2023-04-09T05:14:39.306Z,100867.41
2023-04-09T05:17:11.165Z,100871.97
2023-04-09T05:19:41.456Z,100867.41
2023-04-09T05:22:11.840Z,100868.47
2023-04-09T05:24:41.678Z,100874.09
2023-04-09T05:27:14.643Z,100873.28
2023-04-09T05:29:44.653Z,100877.03
2023-04-09T05:32:11.579Z,100882.38
2023-04-09T05:34:42.635Z,100881.31
2023-04-09T05:37:14.576Z,100887.75
2023-04-09T05:39:45.536Z,100886.12
2023-04-09T05:42:12.611Z,100884.53
2023-04-09T05:44:45.940Z,100879.16
2023-04-09T05:47:16.929Z,100891.50
2023-04-09T05:49:43.856Z,100891.50
2023-04-09T05:52:14.737Z,100893.38
2023-04-09T05:54:42.475Z,100891.50
2023-04-09T05:57:12.048Z,100888.53
2023-04-09T05:59:48.171Z,100893.09
2023-04-09T06:02:28.619Z,100893.91
2023-04-09T06:04:58.794Z,100900.06
2023-04-09T06:07:29.182Z,100904.91
2023-04-09T06:09:56.346Z,100902.81
2023-04-09T06:12:29.889Z,100904.41
2023-04-09T06:14:59.263Z,100900.44
2023-04-09T06:17:27.203Z,100905.53
2023-04-09T06:19:57.032Z,100908.22
2023-04-09T06:22:26.959Z,100907.72
2023-04-09T06:24:57.018Z,100904.56
2023-04-09T06:27:24.367Z,100909.97
2023-04-09T06:29:57.041Z,100909.47
2023-04-09T06:32:33.494Z,100914.31
2023-04-09T06:35:08.325Z,100914.59
2023-04-09T06:37:40.447Z,100915.72
2023-04-09T06:40:08.555Z,100915.97
2023-04-09T06:42:42.005Z,100910.63
2023-04-09T06:45:12.455Z,100917.09
2023-04-09T06:47:39.772Z,100923.56
2023-04-09T06:50:12.428Z,100915.53
2023-04-09T06:52:39.424Z,100917.66
2023-04-09T06:55:09.379Z,100928.69
2023-04-09T06:57:39.070Z,100929.25
2023-04-09T07:00:09.395Z,100930.34
2023-04-09T07:02:37.287Z,100933.84
2023-04-09T07:05:05.211Z,100941.91
2023-04-09T07:07:35.415Z,100939.78
2023-04-09T07:10:07.920Z,100943.56
2023-04-09T07:12:38.006Z,100948.94
2023-04-09T07:15:07.239Z,100951.13
2023-04-09T07:17:37.695Z,100947.38
2023-04-09T07:20:08.055Z,100958.13
2023-04-09T07:22:36.392Z,100953.84
2023-04-09T07:25:06.864Z,100957.91
2023-04-09T07:27:36.960Z,100952.28
2023-04-09T07:30:07.154Z,100959.00
2023-04-09T07:32:40.165Z,100959.78
2023-04-09T07:35:07.734Z,100961.16
2023-04-09T07:37:34.602Z,100958.78
2023-04-09T07:40:02.313Z,100955.81
2023-04-09T07:42:29.750Z,100956.63
2023-04-09T07:45:02.363Z,100966.88
2023-04-09T07:47:34.229Z,100961.97
2023-04-09T07:50:01.121Z,100958.28
2023-04-09T07:52:31.141Z,100967.94
2023-04-09T07:55:01.280Z,100970.03
2023-04-09T07:57:32.615Z,100967.66
2023-04-09T08:00:05.453Z,100975.47
2023-04-09T08:02:32.605Z,100966.34
2023-04-09T08:05:09.021Z,100971.72
2023-04-09T08:07:39.326Z,100978.19
2023-04-09T08:10:12.977Z,100978.47
2023-04-09T08:12:42.674Z,100977.66
2023-04-09T08:15:13.233Z,100977.91
2023-04-09T08:17:43.067Z,100977.66
2023-04-09T08:20:13.882Z,100980.88
2023-04-09T08:22:50.146Z,100980.88
2023-04-09T08:25:17.463Z,100981.44
2023-04-09T08:27:48.912Z,100983.03
2023-04-09T08:30:19.133Z,100981.97
2023-04-09T08:32:49.311Z,100982.25
2023-04-09T08:35:16.355Z,100979.31
2023-04-09T08:37:46.676Z,100983.63
2023-04-09T08:40:17.186Z,100978.53
2023-04-09T08:42:56.828Z,100983.63
2023-04-09T08:45:27.052Z,100991.16
2023-04-09T08:48:00.624Z,100991.69
2023-04-09T08:50:32.006Z,100993.34
2023-04-09T08:53:10.334Z,100989.56
2023-04-09T08:55:41.019Z,100990.38
2023-04-09T08:58:13.955Z,100992.81
2023-04-09T09:00:43.934Z,100993.63
2023-04-09T09:03:15.806Z,100998.72
2023-04-09T09:05:47.028Z,100996.03
2023-04-09T09:08:26.958Z,100993.91
2023-04-09T09:10:56.996Z,100999.28
2023-04-09T09:13:31.119Z,100990.94
2023-04-09T09:16:15.294Z,100986.37
2023-04-09T09:18:48.702Z,100995.25
2023-04-09T09:21:22.196Z,100992.56
2023-04-09T09:23:54.806Z,100995.00
2023-04-09T09:26:30.897Z,100997.69
2023-04-09T09:29:03.912Z,100995.81
2023-04-09T09:31:45.648Z,100996.59
2023-04-09T09:34:12.784Z,100989.06
2023-04-09T09:36:42.799Z,100986.37
2023-04-09T09:39:12.893Z,100986.37
2023-04-09T09:41:46.584Z,100989.87
2023-04-09T09:44:35.028Z,100979.97
2023-04-09T09:47:05.890Z,100978.34
2023-04-09T09:49:39.051Z,100984.50
2023-04-09T09:52:10.857Z,100979.97
2023-04-09T09:54:45.795Z,100979.97
2023-04-09T09:57:18.773Z,100980.78
2023-04-09T09:59:54.333Z,100982.37
2023-04-09T10:02:31.907Z,100988.56
2023-04-09T10:05:06.297Z,100986.66
2023-04-09T10:07:37.517Z,100992.84
2023-04-09T10:10:11.573Z,100991.00
2023-04-09T10:12:44.478Z,100986.44
2023-04-09T10:15:12.303Z,100991.78
2023-04-09T10:17:42.339Z,100987.22
2023-04-09T10:20:33.087Z,100988.03
2023-04-09T10:23:06.134Z,100991.78
2023-04-09T10:25:38.911Z,100991.78
2023-04-09T10:28:17.973Z,100989.63
2023-04-09T10:30:46.165Z,100977.28
2023-04-09T10:33:15.149Z,100982.66
2023-04-09T10:35:47.763Z,100985.34
2023-04-09T10:38:15.603Z,100976.47
2023-04-09T10:40:54.406Z,100970.31
2023-04-09T10:43:24.297Z,100975.69
2023-04-09T10:45:58.782Z,100969.22
2023-04-09T10:48:28.594Z,100962.50
2023-04-09T10:50:56.041Z,100964.94
2023-04-09T10:53:25.002Z,100967.62
2023-04-09T10:55:59.189Z,100971.12
2023-04-09T10:58:29.178Z,100968.66
2023-04-09T11:01:01.552Z,100962.25
2023-04-09T11:03:30.905Z,100970.31
2023-04-09T11:06:06.691Z,100967.62
2023-04-09T11:08:41.119Z,100974.03
2023-04-09T11:11:10.763Z,100975.69
2023-04-09T11:13:43.130Z,100967.62
2023-04-09T11:16:12.788Z,100964.94
2023-04-09T11:18:53.393Z,100967.62
2023-04-09T11:21:30.086Z,100964.94
2023-04-09T11:24:01.169Z,100962.50
2023-04-09T11:26:38.898Z,100965.75
2023-04-09T11:29:08.417Z,100966.81
2023-04-09T11:31:38.774Z,100964.94
2023-04-09T11:34:08.668Z,100959.56
2023-04-09T11:36:41.406Z,100963.84
2023-04-09T11:39:11.184Z,100961.19
2023-04-09T11:41:40.851Z,100964.94
2023-04-09T11:44:14.552Z,100970.31
2023-04-09T11:46:46.043Z,100954.19
2023-04-09T11:49:13.220Z,100954.19
2023-04-09T11:51:45.992Z,100953.13
2023-04-09T11:54:13.840Z,100956.59
2023-04-09T11:56:46.454Z,100949.63
2023-04-09T11:59:16.111Z,100947.19
2023-04-09T12:01:48.896Z,100956.88
2023-04-09T12:04:26.033Z,100945.87
2023-04-09T12:06:59.457Z,100948.81
2023-04-09T12:09:26.459Z,100941.56
2023-04-09T12:11:56.155Z,100956.38
2023-04-09T12:14:28.093Z,100947.22
2023-04-09T12:16:57.978Z,100951.50
2023-04-09T12:19:26.067Z,100951.50
2023-04-09T12:22:02.973Z,100945.09
2023-04-09T12:24:35.763Z,100955.84
2023-04-09T12:27:07.617Z,100946.69
2023-04-09T12:29:37.976Z,100950.47
2023-04-09T12:32:05.365Z,100948.81
2023-04-09T12:34:32.364Z,100941.84
2023-04-09T12:37:02.764Z,100948.81
2023-04-09T12:39:34.387Z,100941.84
2023-04-09T12:42:01.529Z,100947.22
2023-04-09T12:44:31.324Z,100952.59
2023-04-09T12:47:05.807Z,100947.22
2023-04-09T12:49:36.197Z,100949.34
2023-04-09T12:52:09.747Z,100949.34
2023-04-09T12:54:38.872Z,100948.31
2023-04-09T12:57:09.141Z,100951.00
2023-04-09T12:59:44.182Z,100942.37
2023-04-09T13:02:14.195Z,100940.78
2023-04-09T13:04:44.266Z,100945.06
2023-04-09T13:07:18.922Z,100939.16
2023-04-09T13:09:46.963Z,100938.09
2023-04-09T13:12:17.082Z,100944.53
2023-04-09T13:14:50.422Z,100936.47
2023-04-09T13:17:23.129Z,100933.22
2023-04-09T13:19:54.360Z,100930.56
2023-04-09T13:22:21.681Z,100934.59
2023-04-09T13:24:54.275Z,100930.03
2023-04-09T13:27:21.344Z,100933.00
2023-04-09T13:29:48.614Z,100931.91
2023-04-09T13:32:15.596Z,100928.41
2023-04-09T13:34:46.361Z,100933.78
2023-04-09T13:37:13.195Z,100929.47
2023-04-09T13:39:40.579Z,100931.34
2023-04-09T13:42:14.056Z,100927.88
2023-04-09T13:44:47.253Z,100924.09
2023-04-09T13:47:18.221Z,100920.38
2023-04-09T13:49:50.984Z,100915.78
2023-04-09T13:52:29.665Z,100920.09
2023-04-09T13:55:02.836Z,100921.69
2023-04-09T13:57:35.872Z,100925.72
2023-04-09T14:00:02.552Z,100921.16
2023-04-09T14:02:29.569Z,100919.84
2023-04-09T14:04:56.715Z,100919.03
2023-04-09T14:07:26.326Z,100914.47
2023-04-09T14:09:53.268Z,100910.97
2023-04-09T14:12:23.230Z,100915.53
2023-04-09T14:14:56.568Z,100907.72
2023-04-09T14:17:29.675Z,100901.28
2023-04-09T14:19:56.940Z,100907.50
2023-04-09T14:22:38.178Z,100909.91
2023-04-09T14:25:14.360Z,100907.50
2023-04-09T14:27:44.544Z,100902.13
2023-04-09T14:30:15.511Z,100904.78
2023-04-09T14:32:48.421Z,100901.56
2023-04-09T14:35:15.652Z,100902.38
2023-04-09T14:37:45.988Z,100908.53
2023-04-09T14:40:13.236Z,100911.50
2023-04-09T14:42:46.293Z,100905.31
2023-04-09T14:45:13.079Z,100913.94
2023-04-09T14:47:43.352Z,100911.50
2023-04-09T14:50:13.727Z,100915.00
2023-04-09T14:52:40.843Z,100910.69
2023-04-09T14:55:13.594Z,100909.38
2023-04-09T14:57:41.611Z,100908.00
2023-04-09T15:00:12.773Z,100905.88
2023-04-09T15:02:42.664Z,100908.81
2023-04-09T15:05:10.118Z,100908.81
2023-04-09T15:07:37.255Z,100904.28
2023-04-09T15:10:04.495Z,100909.09
2023-04-09T15:12:32.185Z,100909.66
2023-04-09T15:15:09.314Z,100909.09
2023-04-09T15:17:40.349Z,100904.78
2023-04-09T15:20:11.445Z,100901.03
2023-04-09T15:22:47.725Z,100904.78
2023-04-09T15:25:14.755Z,100910.16
2023-04-09T15:27:41.720Z,100910.97
2023-04-09T15:30:12.018Z,100905.88
2023-04-09T15:32:40.605Z,100903.72
2023-04-09T15:35:11.068Z,100912.06
2023-04-09T15:37:41.069Z,100906.41
2023-04-09T15:40:11.362Z,100908.81
2023-04-09T15:42:44.977Z,100911.50
2023-04-09T15:45:15.128Z,100906.41
2023-04-09T15:47:49.683Z,100904.28
2023-04-09T15:50:19.685Z,100905.06
2023-04-09T15:52:49.754Z,100905.88
2023-04-09T15:55:16.829Z,100910.16
2023-04-09T15:57:47.110Z,100910.16
2023-04-09T16:00:17.649Z,100912.84
2023-04-09T16:02:44.528Z,100914.47
2023-04-09T16:05:11.440Z,100904.53
2023-04-09T16:07:38.688Z,100912.31
2023-04-09T16:10:06.545Z,100913.12
2023-04-09T16:12:33.420Z,100912.31
2023-04-09T16:15:00.330Z,100909.62
2023-04-09T16:17:40.216Z,100913.94
2023-04-09T16:20:08.703Z,100913.94
2023-04-09T16:22:36.687Z,100908.03
2023-04-09T16:25:03.594Z,100917.69
2023-04-09T16:27:31.137Z,100907.50
2023-04-09T16:29:58.341Z,100912.91
2023-04-09T16:32:25.480Z,100908.88
2023-04-09T16:34:52.483Z,100910.75
2023-04-09T16:37:31.013Z,100915.59
2023-04-09T16:39:59.379Z,100911.84
2023-04-09T16:42:26.280Z,100911.28
2023-04-09T16:44:53.247Z,100909.66
2023-04-09T16:47:20.673Z,100910.75
2023-04-09T16:49:50.030Z,100913.94
2023-04-09T16:52:16.926Z,100911.25
2023-04-09T16:54:43.843Z,100909.62
2023-04-09T16:57:11.159Z,100917.12
2023-04-09T16:59:38.036Z,100909.31
2023-04-09T17:02:06.584Z,100912.25
2023-04-09T17:04:37.119Z,100915.19
2023-04-09T17:07:04.454Z,100907.41
2023-04-09T17:09:31.750Z,100909.31
2023-04-09T17:12:01.246Z,100908.53
2023-04-09T17:14:31.058Z,100912.56
2023-04-09T17:16:58.362Z,100911.22
2023-04-09T17:19:25.360Z,100913.38
2023-04-09T17:21:56.552Z,100923.03
2023-04-09T17:24:24.457Z,100921.97
2023-04-09T17:26:55.198Z,100916.59
2023-04-09T17:29:28.759Z,100914.47
2023-04-09T17:31:57.865Z,100919.03
2023-04-09T17:34:29.715Z,100923.03
2023-04-09T17:36:58.220Z,100920.91
2023-04-09T17:39:25.439Z,100929.50
2023-04-09T17:41:52.492Z,100927.38
2023-04-09T17:44:19.596Z,100934.91
2023-04-09T17:46:49.419Z,100933.81
2023-04-09T17:49:19.233Z,100934.34
2023-04-09T17:51:52.181Z,100929.53
2023-04-09T17:54:19.511Z,100936.50
2023-04-09T17:56:48.999Z,100939.75
2023-04-09T17:59:16.251Z,100939.75
2023-04-09T18:01:43.392Z,100943.25
2023-04-09T18:04:13.365Z,100952.41
2023-04-09T18:06:45.251Z,100955.87
2023-04-09T18:09:14.738Z,100960.72
2023-04-09T18:11:42.271Z,100950.50
2023-04-09T18:14:09.734Z,100953.44
2023-04-09T18:16:40.266Z,100955.31
2023-04-09T18:19:08.088Z,100951.53
2023-04-09T18:21:35.239Z,100952.37
2023-04-09T18:24:05.152Z,100962.34
2023-04-09T18:26:38.076Z,100963.97
2023-04-09T18:29:05.100Z,100968.00
2023-04-09T18:31:32.884Z,100966.13
2023-04-09T18:34:01.186Z,100965.84
2023-04-09T18:36:31.521Z,100971.50
2023-04-09T18:38:58.921Z,100973.09
2023-04-09T18:41:27.273Z,100983.84
2023-04-09T18:43:58.280Z,100983.84
2023-04-09T18:46:27.990Z,100983.84
2023-04-09T18:48:59.052Z,100986.00
2023-04-09T18:51:29.267Z,100988.69
2023-04-09T18:53:59.796Z,100995.69
2023-04-09T18:56:30.858Z,100999.44
2023-04-09T18:59:01.646Z,100994.06
2023-04-09T19:01:29.226Z,101004.81
2023-04-09T19:03:57.183Z,101001.06
2023-04-09T19:06:28.011Z,101006.44
2023-04-09T19:08:55.805Z,101012.63
2023-04-09T19:11:24.481Z,101015.56
2023-04-09T19:13:52.342Z,101017.72
2023-04-09T19:16:20.962Z,101022.53
2023-04-09T19:18:49.006Z,101019.03
2023-04-09T19:21:23.048Z,101023.59
2023-04-09T19:23:53.639Z,101019.81
2023-04-09T19:26:23.797Z,101017.13
2023-04-09T19:28:54.540Z,101010.94
2023-04-09T19:31:22.995Z,101016.31
2023-04-09T19:33:50.542Z,101012.81
2023-04-09T19:36:18.232Z,101008.53
2023-04-09T19:38:45.495Z,101019.28
2023-04-09T19:41:13.743Z,101021.41
2023-04-09T19:43:44.288Z,101019.81
2023-04-09T19:46:15.588Z,101016.31
2023-04-09T19:48:48.887Z,101011.19
2023-04-09T19:51:19.394Z,101020.59
2023-04-09T19:53:50.991Z,101018.72
2023-04-09T19:56:22.009Z,101016.56
2023-04-09T19:58:56.593Z,101016.03
2023-04-09T20:01:26.973Z,101021.41
2023-04-09T20:03:57.952Z,101015.22
2023-04-09T20:06:28.820Z,101019.78
2023-04-09T20:08:59.818Z,101013.88
2023-04-09T20:11:30.857Z,101015.47
2023-04-09T20:14:00.955Z,101013.88
2023-04-09T20:16:35.448Z,101021.94
2023-04-09T20:19:09.333Z,101011.47
2023-04-09T20:21:39.848Z,101012.25
2023-04-09T20:24:14.511Z,101012.78
2023-04-09T20:26:47.804Z,101016.00
2023-04-09T20:29:18.827Z,101015.47
2023-04-09T20:31:52.286Z,101011.41
2023-04-09T20:34:19.721Z,101013.81
2023-04-09T20:36:50.960Z,101013.81
2023-04-09T20:39:26.487Z,101007.13
2023-04-09T20:41:57.298Z,101013.28
2023-04-09T20:44:26.106Z,101014.38
2023-04-09T20:46:55.146Z,101002.00
2023-04-09T20:49:29.359Z,101005.75
2023-04-09T20:52:00.407Z,101006.84
2023-04-09T20:54:31.814Z,101006.28
2023-04-09T20:57:05.512Z,101010.31
2023-04-09T20:59:39.881Z,101013.28
2023-04-09T21:02:16.073Z,101011.66
2023-04-09T21:04:47.403Z,101015.41
2023-04-09T21:07:15.359Z,101011.13
2023-04-09T21:09:42.995Z,101014.03
2023-04-09T21:12:10.935Z,101014.31
2023-04-09T21:14:44.284Z,101008.94
2023-04-09T21:17:14.486Z,101013.53
2023-04-09T21:19:45.130Z,101011.09
2023-04-09T21:22:14.355Z,101013.78
2023-04-09T21:24:42.603Z,101018.09
2023-04-09T21:27:19.714Z,101013.22
2023-04-09T21:29:50.109Z,101011.62
2023-04-09T21:32:23.893Z,101026.13
2023-04-09T21:35:00.460Z,101019.41
2023-04-09T21:37:31.321Z,101025.03
2023-04-09T21:40:05.802Z,101017.00
2023-04-09T21:42:37.182Z,101018.56
2023-04-09T21:45:08.667Z,101018.56
2023-04-09T21:47:38.899Z,101021.50
2023-04-09T21:50:07.404Z,101027.69
2023-04-09T21:52:38.048Z,101024.97
2023-04-09T21:55:09.462Z,101030.34
2023-04-09T21:57:43.088Z,101039.47
2023-04-09T22:00:17.614Z,101034.13
2023-04-09T22:02:48.766Z,101039.47
2023-04-09T22:05:22.540Z,101042.69
2023-04-09T22:07:54.409Z,101043.75
2023-04-09T22:10:22.257Z,101046.44
2023-04-09T22:12:52.859Z,101039.44
2023-04-09T22:15:29.733Z,101044.28
2023-04-09T22:17:59.646Z,101050.44
2023-04-09T22:20:30.464Z,101046.41
2023-04-09T22:23:03.262Z,101042.91
2023-04-09T22:25:34.152Z,101048.53
2023-04-09T22:28:01.606Z,101048.53
2023-04-09T22:30:29.775Z,101049.63
2023-04-09T22:32:59.779Z,101048.78
2023-04-09T22:35:30.074Z,101049.06
2023-04-09T22:37:57.649Z,101056.03
2023-04-09T22:40:25.544Z,101052.81
2023-04-09T22:42:53.161Z,101051.19
2023-04-09T22:45:24.251Z,101053.87
2023-04-09T22:47:51.995Z,101049.84
2023-04-09T22:50:25.655Z,101053.59
2023-04-09T22:52:56.423Z,101044.72
2023-04-09T22:55:29.805Z,101052.22
2023-04-09T22:57:59.874Z,101053.84
2023-04-09T23:00:29.984Z,101052.22
2023-04-09T23:02:57.678Z,101046.06
2023-04-09T23:05:25.195Z,101045.25
2023-04-09T23:07:55.546Z,101047.94
2023-04-09T23:10:31.607Z,101042.81
2023-04-09T23:12:58.972Z,101042.28
2023-04-09T23:15:32.463Z,101040.41
2023-04-09T23:18:09.732Z,101032.81
2023-04-09T23:20:41.207Z,101037.13
2023-04-09T23:23:11.400Z,101039.00
2023-04-09T23:25:44.577Z,101036.03
2023-04-09T23:28:18.120Z,101031.47
2023-04-09T23:30:51.134Z,101035.78
2023-04-09T23:33:18.284Z,101028.78
2023-04-09T23:35:47.950Z,101034.41
2023-04-09T23:38:15.611Z,101039.78
2023-04-09T23:40:46.434Z,101034.91
2023-04-09T23:43:14.487Z,101029.81
2023-04-09T23:45:44.953Z,101024.19
2023-04-09T23:48:18.432Z,101020.97
2023-04-09T23:50:49.097Z,101026.56
2023-04-09T23:53:27.857Z,101026.56
2023-04-09T23:55:58.376Z,101026.84
2023-04-09T23:58:28.604Z,101016.91
